createdAt,value
2023-02-18T00:00:56.565Z,52.87
2023-02-18T00:01:56.608Z,49.02
2023-02-18T00:02:56.699Z,45.60
2023-02-18T00:03:56.700Z,50.16
2023-02-18T00:04:56.742Z,48.27
2023-02-18T00:05:56.748Z,44.58
2023-02-18T00:06:56.795Z,51.86
2023-02-18T00:07:56.882Z,50.60
2023-02-18T00:08:56.871Z,50.09
2023-02-18T00:09:56.930Z,48.69
2023-02-18T00:10:56.972Z,50.65
2023-02-18T00:11:57.081Z,52.15
2023-02-18T00:12:57.051Z,50.38
2023-02-18T00:13:57.122Z,46.36
2023-02-18T00:14:57.145Z,50.89
2023-02-18T00:15:57.236Z,49.87
2023-02-18T00:16:57.233Z,49.76
2023-02-18T00:17:57.297Z,47.95
2023-02-18T00:18:57.356Z,50.32
2023-02-18T00:19:57.375Z,47.73
2023-02-18T00:20:57.414Z,48.57
2023-02-18T00:21:57.481Z,48.91
2023-02-18T00:22:57.542Z,47.51
2023-02-18T00:23:57.543Z,48.50
2023-02-18T00:24:57.613Z,49.02
2023-02-18T00:25:57.633Z,52.23
2023-02-18T00:26:57.729Z,48.09
2023-02-18T00:27:57.754Z,49.50
2023-02-18T00:28:57.788Z,47.77
2023-02-18T00:29:57.879Z,49.40
2023-02-18T00:30:57.961Z,51.20
2023-02-18T00:31:57.988Z,48.12
2023-02-18T00:32:57.954Z,45.59
2023-02-18T00:33:57.987Z,46.76
2023-02-18T00:34:58.056Z,47.18
2023-02-18T00:35:58.077Z,48.02
2023-02-18T00:36:58.145Z,45.48
2023-02-18T00:37:58.200Z,45.78
2023-02-18T00:38:58.237Z,46.76
2023-02-18T00:39:58.285Z,47.18
2023-02-18T00:41:58.367Z,46.87
2023-02-18T00:42:58.444Z,45.88
2023-02-18T00:43:58.487Z,45.09
2023-02-18T00:44:58.508Z,43.68
2023-02-18T00:45:58.595Z,43.66
2023-02-18T00:46:58.606Z,44.75
2023-02-18T00:47:58.674Z,44.72
2023-02-18T00:48:58.681Z,41.97
2023-02-18T00:49:58.729Z,42.34
2023-02-18T00:50:58.784Z,42.26
2023-02-18T00:51:58.812Z,42.53
2023-02-18T00:52:58.855Z,44.78
2023-02-18T00:53:58.904Z,40.74
2023-02-18T00:54:58.923Z,39.16
2023-02-18T00:55:59.014Z,41.39
2023-02-18T00:56:59.050Z,40.87
2023-02-18T00:57:59.076Z,41.51
2023-02-18T00:58:59.179Z,42.05
2023-02-18T00:59:59.164Z,41.85
2023-02-18T01:00:59.209Z,39.04
2023-02-18T01:01:59.296Z,38.97
2023-02-18T01:02:59.313Z,40.18
2023-02-18T01:03:59.342Z,39.02
2023-02-18T01:04:59.442Z,35.58
2023-02-18T01:05:59.431Z,36.27
2023-02-18T01:06:59.482Z,36.59
2023-02-18T01:07:59.722Z,37.29
2023-02-18T01:08:59.549Z,40.42
2023-02-18T01:09:59.596Z,39.22
2023-02-18T01:10:59.650Z,37.01
2023-02-18T01:11:59.711Z,37.50
2023-02-18T01:12:59.755Z,38.35
2023-02-18T01:13:59.772Z,34.86
2023-02-18T01:14:59.794Z,35.61
2023-02-18T01:15:59.857Z,36.32
2023-02-18T01:16:59.903Z,38.54
2023-02-18T01:17:59.986Z,37.99
2023-02-18T01:19:00.003Z,34.89
2023-02-18T01:20:00.052Z,35.58
2023-02-18T01:21:00.103Z,36.44
2023-02-18T01:22:00.156Z,36.81
2023-02-18T01:23:00.225Z,37.90
2023-02-18T01:24:00.237Z,34.55
2023-02-18T01:25:00.284Z,33.93
2023-02-18T01:26:00.271Z,34.80
2023-02-18T01:27:00.322Z,35.28
2023-02-18T01:28:00.460Z,35.00
2023-02-18T01:29:00.430Z,36.51
2023-02-18T01:30:00.472Z,35.12
2023-02-18T01:31:00.540Z,34.48
2023-02-18T01:32:00.717Z,34.08
2023-02-18T01:33:00.590Z,33.45
2023-02-18T01:34:00.634Z,35.16
2023-02-18T01:35:00.685Z,36.48
2023-02-18T01:36:00.746Z,34.48
2023-02-18T01:37:00.752Z,33.85
2023-02-18T01:38:00.840Z,32.97
2023-02-18T01:39:00.834Z,34.76
2023-02-18T01:40:00.887Z,34.13
2023-02-18T01:41:00.932Z,32.43
2023-02-18T01:42:01.015Z,34.28
2023-02-18T02:27:03.095Z,31.97
2023-02-18T02:28:03.124Z,30.73
2023-02-18T02:29:03.172Z,29.12
2023-02-18T02:31:03.396Z,31.82
2023-02-18T02:32:03.300Z,30.75
2023-02-18T02:33:03.347Z,31.45
2023-02-18T02:34:03.398Z,33.48
2023-02-18T02:35:03.408Z,32.38
2023-02-18T02:36:03.463Z,31.92
2023-02-18T02:37:03.422Z,31.10
2023-02-18T02:38:03.494Z,35.55
2023-02-18T02:39:03.535Z,35.66
2023-02-18T02:40:03.599Z,36.05
2023-02-18T02:41:03.621Z,32.45
2023-02-18T02:42:03.666Z,31.23
2023-02-18T02:43:03.710Z,33.12
2023-02-18T02:44:03.772Z,33.22
2023-02-18T02:45:03.832Z,30.74
2023-02-18T02:46:03.936Z,33.04
2023-02-18T02:47:03.907Z,30.58
2023-02-18T02:48:03.934Z,32.49
2023-02-18T02:49:03.979Z,31.73
2023-02-18T02:50:04.061Z,33.46
2023-02-18T02:51:04.099Z,31.80
2023-02-18T02:52:04.138Z,31.27
2023-02-18T02:53:04.212Z,32.83
2023-02-18T02:57:04.412Z,34.42
2023-02-18T03:30:06.792Z,28.71
2023-02-18T03:31:06.172Z,25.61
2023-02-18T03:32:06.200Z,31.08
2023-02-18T03:33:06.110Z,29.04
2023-02-18T03:34:06.183Z,28.75
2023-02-18T03:35:06.216Z,30.19
2023-02-18T03:36:06.701Z,28.48
2023-02-18T03:37:06.346Z,29.87
2023-02-18T03:38:06.358Z,30.91
2023-02-18T03:39:06.403Z,27.92
2023-02-18T03:40:06.415Z,28.97
2023-02-18T03:41:06.489Z,27.04
2023-02-18T03:42:06.532Z,28.26
2023-02-18T03:43:06.577Z,30.18
2023-02-18T03:44:06.598Z,30.74
2023-02-18T03:45:06.699Z,31.05
2023-02-18T03:46:07.289Z,32.18
2023-02-18T03:47:06.782Z,30.54
2023-02-18T03:48:06.863Z,28.24
2023-02-18T03:49:06.880Z,29.83
2023-02-18T03:50:06.936Z,28.99
2023-02-18T03:51:06.949Z,29.32
2023-02-18T03:52:07.000Z,30.23
2023-02-18T03:53:07.071Z,28.96
2023-02-18T03:54:07.118Z,29.92
2023-02-18T03:55:07.181Z,29.99
2023-02-18T03:56:07.714Z,30.04
2023-02-18T03:57:07.235Z,31.07
2023-02-18T03:58:07.278Z,29.08
2023-02-18T03:59:07.321Z,27.98
2023-02-18T04:00:07.375Z,28.06
2023-02-18T04:01:07.482Z,31.48
2023-02-18T04:02:07.479Z,31.58
2023-02-18T04:03:07.492Z,30.52
2023-02-18T04:04:07.636Z,29.86
2023-02-18T04:23:08.775Z,31.91
2023-02-18T06:00:12.334Z,30.67
2023-02-18T06:02:12.443Z,31.28
2023-02-18T06:03:12.512Z,27.86
2023-02-18T06:04:12.533Z,28.97
2023-02-18T06:05:12.568Z,29.76
2023-02-18T06:06:12.641Z,31.54
2023-02-18T06:07:12.641Z,29.62
2023-02-18T06:08:12.693Z,30.92
2023-02-18T06:09:12.756Z,29.08
2023-02-18T06:10:12.819Z,29.92
2023-02-18T06:11:12.828Z,28.27
2023-02-18T06:12:12.884Z,29.16
2023-02-18T06:13:12.949Z,27.89
2023-02-18T06:14:12.995Z,29.24
2023-02-18T06:15:13.030Z,30.06
2023-02-18T06:16:13.187Z,26.98
2023-02-18T06:17:13.151Z,29.81
2023-02-18T06:18:13.168Z,30.30
2023-02-18T06:19:13.227Z,29.17
2023-02-18T06:20:13.261Z,30.26
2023-02-18T06:21:13.361Z,28.88
2023-02-18T06:22:13.395Z,28.68
2023-02-18T06:23:13.414Z,30.26
2023-02-18T06:24:13.475Z,28.41
2023-02-18T06:25:13.488Z,30.89
2023-02-18T06:26:13.522Z,30.35
2023-02-18T06:27:13.581Z,30.41
2023-02-18T06:28:13.618Z,31.39
2023-02-18T06:29:13.672Z,31.27
2023-02-18T06:30:13.791Z,30.94
2023-02-18T06:31:13.850Z,30.45
2023-02-18T06:32:13.847Z,30.33
2023-02-18T06:33:13.819Z,30.09
2023-02-18T06:34:13.892Z,28.34
2023-02-18T06:35:13.894Z,31.09
2023-02-18T06:36:13.980Z,29.62
2023-02-18T06:37:13.972Z,29.99
2023-02-18T06:38:14.028Z,31.48
2023-02-18T06:39:14.142Z,31.54
2023-02-18T06:40:14.149Z,29.41
2023-02-18T06:41:14.198Z,29.91
2023-02-18T06:42:14.220Z,29.26
2023-02-18T06:43:14.296Z,29.38
2023-02-18T06:44:14.329Z,29.39
2023-02-18T06:45:14.369Z,29.89
2023-02-18T06:46:14.467Z,30.99
2023-02-18T06:47:14.455Z,31.30
2023-02-18T06:48:14.493Z,28.56
2023-02-18T06:49:14.521Z,30.05
2023-02-18T06:50:14.531Z,32.00
2023-02-18T06:51:14.602Z,29.68
2023-02-18T06:52:14.663Z,33.43
2023-02-18T06:53:14.661Z,29.41
2023-02-18T06:54:14.729Z,31.14
2023-02-18T06:55:14.743Z,31.10
2023-02-18T06:56:14.813Z,33.71
2023-02-18T06:57:14.860Z,33.60
2023-02-18T06:58:14.906Z,32.42
2023-02-18T06:59:14.942Z,32.70
2023-02-18T07:01:15.146Z,31.44
2023-02-18T07:02:15.056Z,34.97
2023-02-18T07:03:15.149Z,31.71
2023-02-18T07:04:15.178Z,32.21
2023-02-18T07:05:15.210Z,35.31
2023-02-18T07:06:15.256Z,34.24
2023-02-18T07:07:15.220Z,31.26
2023-02-18T07:08:15.276Z,33.40
2023-02-18T07:09:15.349Z,35.20
2023-02-18T07:10:15.378Z,37.05
2023-02-18T07:11:15.432Z,36.04
2023-02-18T07:12:15.481Z,33.93
2023-02-18T07:13:15.490Z,33.86
2023-02-18T07:14:15.527Z,33.20
2023-02-18T07:15:15.547Z,34.64
2023-02-18T07:16:15.650Z,35.85
2023-02-18T07:17:15.654Z,35.21
2023-02-18T07:18:15.727Z,35.98
2023-02-18T07:19:16.108Z,35.74
2023-02-18T07:20:15.761Z,33.98
2023-02-18T07:21:15.807Z,33.19
2023-02-18T07:22:15.835Z,34.57
2023-02-18T07:23:15.874Z,36.51
2023-02-18T07:24:15.904Z,36.00
2023-02-18T07:25:15.928Z,36.54
2023-02-18T07:26:15.990Z,35.01
2023-02-18T07:27:16.020Z,38.06
2023-02-18T07:28:16.032Z,36.28
2023-02-18T07:29:16.070Z,38.31
2023-02-18T07:30:16.160Z,38.01
2023-02-18T07:31:16.321Z,40.15
2023-02-18T07:32:16.240Z,37.76
2023-02-18T07:33:16.214Z,38.24
2023-02-18T07:34:16.247Z,40.18
2023-02-18T07:35:16.247Z,39.86
2023-02-18T07:36:16.285Z,36.67
2023-02-18T07:37:16.329Z,41.53
2023-02-18T07:38:16.322Z,39.53
2023-02-18T07:39:16.387Z,36.30
2023-02-18T07:40:16.392Z,36.46
2023-02-18T07:41:16.435Z,40.39
2023-02-18T07:42:16.466Z,40.53
2023-02-18T07:43:16.497Z,42.59
2023-02-18T07:44:16.555Z,38.77
2023-02-18T07:45:16.604Z,41.34
2023-02-18T07:46:16.607Z,42.89
2023-02-18T07:47:16.646Z,41.61
2023-02-18T07:48:16.772Z,40.93
2023-02-18T07:49:16.758Z,40.86
2023-02-18T07:50:16.800Z,42.55
2023-02-18T07:51:16.836Z,43.61
2023-02-18T07:52:16.894Z,41.72
2023-02-18T07:53:16.898Z,40.60
2023-02-18T07:54:16.953Z,43.01
2023-02-18T07:55:16.983Z,42.11
2023-02-18T07:56:17.033Z,42.42
2023-02-18T07:57:17.042Z,43.83
2023-02-18T07:58:17.070Z,43.28
2023-02-18T07:59:17.089Z,41.77
2023-02-18T08:00:17.106Z,42.29
2023-02-18T08:01:17.158Z,43.26
2023-02-18T08:02:17.151Z,42.50
2023-02-18T08:03:17.212Z,41.29
2023-02-18T08:04:17.379Z,40.01
2023-02-18T08:05:17.338Z,41.87
2023-02-18T08:06:17.268Z,40.42
2023-02-18T08:07:17.312Z,41.71
2023-02-18T08:08:17.344Z,41.63
2023-02-18T08:09:17.406Z,41.52
2023-02-18T08:10:17.457Z,42.19
2023-02-18T08:11:19.707Z,38.09
2023-02-18T08:12:17.484Z,45.16
2023-02-18T08:13:17.530Z,43.01
2023-02-18T08:14:17.549Z,40.38
2023-02-18T08:15:17.608Z,42.31
2023-02-18T08:16:17.665Z,44.20
2023-02-18T08:17:17.617Z,43.33
2023-02-18T08:18:17.676Z,42.07
2023-02-18T08:19:17.735Z,43.42
2023-02-18T08:20:17.736Z,43.21
2023-02-18T08:21:17.778Z,44.68
2023-02-18T08:22:17.801Z,45.35
2023-02-18T08:23:17.809Z,44.02
2023-02-18T08:24:17.880Z,42.61
2023-02-18T08:25:29.036Z,45.08
2023-02-18T08:26:18.882Z,45.24
2023-02-18T08:27:17.906Z,45.14
2023-02-18T08:28:17.922Z,44.84
2023-02-18T08:29:17.914Z,44.61
2023-02-18T08:30:17.951Z,45.84
2023-02-18T08:31:18.022Z,42.99
2023-02-18T08:32:17.927Z,47.65
2023-02-18T08:33:17.940Z,43.74
2023-02-18T08:34:17.972Z,45.41
2023-02-18T08:35:17.956Z,44.82
2023-02-18T08:36:17.965Z,46.24
2023-02-18T08:37:17.940Z,45.07
2023-02-18T08:38:17.986Z,43.50
2023-02-18T08:39:17.980Z,45.13
2023-02-18T08:40:17.991Z,43.66
2023-02-18T08:41:18.005Z,45.45
2023-02-18T08:42:18.019Z,43.34
2023-02-18T08:43:18.017Z,41.20
2023-02-18T08:44:18.051Z,45.56
2023-02-18T08:45:18.064Z,45.14
2023-02-18T08:46:25.091Z,42.83
2023-02-18T08:48:17.980Z,43.04
2023-02-18T08:48:20.453Z,43.26
2023-02-18T08:49:18.217Z,43.41
2023-02-18T08:51:18.269Z,45.08
2023-02-18T08:52:18.306Z,45.67
2023-02-18T08:53:18.291Z,44.58
2023-02-18T08:54:18.316Z,45.04
2023-02-18T08:55:18.367Z,44.78
2023-02-18T08:56:18.381Z,46.82
2023-02-18T08:57:18.373Z,43.84
2023-02-18T08:58:18.389Z,39.71
2023-02-18T08:59:18.476Z,41.85
2023-02-18T09:00:18.460Z,42.52
2023-02-18T09:01:18.516Z,41.83
2023-02-18T09:02:18.547Z,44.74
2023-02-18T09:03:18.603Z,40.94
2023-02-18T09:04:18.628Z,44.34
2023-02-18T09:05:18.612Z,42.62
2023-02-18T09:06:18.633Z,42.88
2023-02-18T09:07:18.654Z,41.49
2023-02-18T09:08:18.666Z,40.83
2023-02-18T09:09:18.667Z,44.27
2023-02-18T09:10:18.708Z,44.60
2023-02-18T09:11:18.743Z,44.35
2023-02-18T09:12:18.801Z,43.11
2023-02-18T09:13:18.766Z,46.73
2023-02-18T09:14:18.802Z,43.92
2023-02-18T09:15:18.849Z,44.55
2023-02-18T09:16:18.847Z,45.67
2023-02-18T09:17:18.920Z,48.06
2023-02-18T09:18:18.912Z,45.14
2023-02-18T09:19:18.983Z,44.62
2023-02-18T09:20:18.992Z,43.94
2023-02-18T09:21:19.005Z,45.07
2023-02-18T09:22:19.096Z,44.43
2023-02-18T09:23:19.075Z,45.49
2023-02-18T09:24:19.096Z,42.63
2023-02-18T09:25:19.129Z,45.08
2023-02-18T09:26:19.146Z,43.94
2023-02-18T09:27:19.200Z,41.56
2023-02-18T09:28:19.927Z,43.55
2023-02-18T09:29:19.211Z,41.87
2023-02-18T09:30:19.270Z,43.87
2023-02-18T09:31:19.381Z,44.39
2023-02-18T09:32:32.448Z,39.09
2023-02-18T09:33:20.289Z,39.30
2023-02-18T09:53:19.365Z,44.13
2023-02-18T09:54:19.412Z,45.67
2023-02-18T09:55:19.388Z,43.52
2023-02-18T09:56:19.389Z,43.39
2023-02-18T09:57:19.411Z,46.66
2023-02-18T09:58:19.400Z,47.64
2023-02-18T09:59:19.452Z,47.92
2023-02-18T10:00:19.469Z,46.79
2023-02-18T10:01:19.533Z,42.57
2023-02-18T10:02:19.568Z,44.68
2023-02-18T10:03:19.588Z,47.97
2023-02-18T10:04:19.585Z,43.48
2023-02-18T10:05:19.620Z,44.79
2023-02-18T10:06:19.659Z,45.72
2023-02-18T10:07:19.722Z,45.60
2023-02-18T10:08:19.683Z,48.34
2023-02-18T10:09:19.742Z,47.12
2023-02-18T10:10:19.719Z,46.78
2023-02-18T10:12:19.789Z,46.96
2023-02-18T10:13:19.819Z,49.07
2023-02-18T10:14:20.432Z,44.50
2023-02-18T10:15:19.885Z,48.38
2023-02-18T10:16:19.937Z,46.71
2023-02-18T10:17:19.919Z,47.97
2023-02-18T10:18:19.938Z,46.48
2023-02-18T10:19:19.933Z,44.95
2023-02-18T10:20:20.040Z,46.10
2023-02-18T10:21:20.017Z,47.30
2023-02-18T10:22:20.058Z,48.87
2023-02-18T10:23:20.070Z,48.23
2023-02-18T10:24:20.133Z,48.85
2023-02-18T10:25:20.151Z,48.86
2023-02-18T10:26:20.152Z,48.23
2023-02-18T10:27:20.184Z,47.70
2023-02-18T10:28:20.252Z,46.39
2023-02-18T10:29:21.853Z,47.82
2023-02-18T10:30:20.457Z,45.48
2023-02-18T10:31:20.374Z,47.83
2023-02-18T10:32:20.337Z,52.99
2023-02-18T10:33:20.366Z,53.33
2023-02-18T10:34:20.436Z,50.45
2023-02-18T10:35:20.441Z,48.79
2023-02-18T10:36:20.466Z,46.73
2023-02-18T10:37:20.456Z,46.04
2023-02-18T10:38:20.508Z,47.21
2023-02-18T10:39:20.514Z,48.59
2023-02-18T10:40:20.572Z,48.44
2023-02-18T10:41:20.568Z,45.90
2023-02-18T10:42:20.603Z,49.14
2023-02-18T10:43:20.645Z,48.54
2023-02-18T10:44:20.644Z,47.72
2023-02-18T10:45:20.715Z,50.32
2023-02-18T10:46:20.741Z,50.37
2023-02-18T10:47:20.758Z,50.25
2023-02-18T10:48:20.787Z,51.07
2023-02-18T10:49:20.849Z,49.19
2023-02-18T10:50:20.819Z,48.50
2023-02-18T10:51:20.870Z,48.15
2023-02-18T10:52:20.920Z,49.22
2023-02-18T10:53:20.909Z,48.09
2023-02-18T11:48:22.192Z,43.35
2023-02-18T11:49:22.245Z,45.09
2023-02-18T11:50:22.293Z,40.52
2023-02-18T11:51:22.317Z,43.20
2023-02-18T11:52:22.333Z,48.01
2023-02-18T11:53:22.332Z,42.43
2023-02-18T11:54:22.382Z,44.91
2023-02-18T11:55:22.432Z,42.30
2023-02-18T11:56:22.446Z,41.83
2023-02-18T11:57:22.437Z,44.58
2023-02-18T11:58:22.489Z,43.25
2023-02-18T11:59:22.544Z,46.43
2023-02-18T12:00:22.632Z,46.37
2023-02-18T12:01:22.687Z,45.53
2023-02-18T12:02:22.766Z,45.51
2023-02-18T12:03:22.728Z,43.80
2023-02-18T12:04:22.764Z,41.92
2023-02-18T12:05:22.779Z,45.19
2023-02-18T12:06:22.805Z,41.33
2023-02-18T12:07:22.832Z,41.67
2023-02-18T12:08:22.849Z,43.35
2023-02-18T12:09:22.902Z,43.46
2023-02-18T12:10:22.915Z,39.42
2023-02-18T12:11:22.926Z,42.91
2023-02-18T12:12:22.967Z,40.84
2023-02-18T12:13:22.986Z,41.01
2023-02-18T12:14:23.005Z,40.10
2023-02-18T12:15:23.036Z,41.69
2023-02-18T12:16:23.084Z,38.99
2023-02-18T12:17:23.124Z,42.99
2023-02-18T12:18:23.152Z,43.27
2023-02-18T12:19:23.179Z,40.41
2023-02-18T12:20:23.295Z,41.64
2023-02-18T12:21:23.225Z,41.57
2023-02-18T12:22:23.251Z,42.53
2023-02-18T12:23:23.271Z,41.58
2023-02-18T12:24:23.318Z,41.63
2023-02-18T12:25:23.322Z,39.58
2023-02-18T12:26:23.374Z,38.79
2023-02-18T12:27:23.395Z,39.16
2023-02-18T12:28:23.460Z,41.27
2023-02-18T12:29:23.450Z,38.72
2023-02-18T12:30:23.582Z,41.41
2023-02-18T12:31:23.590Z,43.44
2023-02-18T12:32:23.525Z,43.49
2023-02-18T12:33:23.525Z,43.07
2023-02-18T12:34:23.588Z,45.91
2023-02-18T12:35:23.603Z,44.90
2023-02-18T12:36:23.658Z,44.74
2023-02-18T12:37:23.666Z,43.08
2023-02-18T12:38:23.677Z,44.10
2023-02-18T12:39:23.742Z,44.11
2023-02-18T12:40:23.761Z,44.93
2023-02-18T12:41:23.768Z,46.93
2023-02-18T12:42:23.805Z,46.76
2023-02-18T12:43:23.862Z,48.64
2023-02-18T12:44:23.849Z,45.41
2023-02-18T12:45:23.940Z,45.35
2023-02-18T12:46:23.981Z,42.73
2023-02-18T12:47:23.940Z,45.49
2023-02-18T12:48:23.992Z,45.42
2023-02-18T12:49:24.009Z,46.14
2023-02-18T12:50:24.076Z,44.76
2023-02-18T12:51:24.104Z,43.03
2023-02-18T12:52:24.137Z,42.37
2023-02-18T12:53:24.158Z,45.33
2023-02-18T12:54:24.242Z,45.40
2023-02-18T12:55:24.264Z,47.03
2023-02-18T12:56:24.251Z,47.12
2023-02-18T12:57:24.314Z,50.94
2023-02-18T12:58:24.341Z,49.21
2023-02-18T12:59:24.327Z,48.09
2023-02-18T13:00:24.382Z,47.54
2023-02-18T13:01:24.476Z,47.59
2023-02-18T13:02:24.420Z,46.09
2023-02-18T13:03:24.513Z,47.74
2023-02-18T13:04:24.508Z,48.91
2023-02-18T13:05:24.499Z,48.38
2023-02-18T13:06:24.521Z,45.25
2023-02-18T13:07:24.550Z,43.12
2023-02-18T13:08:24.610Z,43.54
2023-02-18T13:09:24.609Z,42.29
2023-02-18T13:10:24.629Z,42.69
2023-02-18T13:11:24.658Z,44.84
2023-02-18T13:12:24.703Z,46.89
2023-02-18T13:13:24.736Z,45.20
2023-02-18T13:14:24.743Z,43.00
2023-02-18T13:15:24.778Z,43.44
2023-02-18T13:16:24.836Z,46.58
2023-02-18T13:17:24.822Z,43.53
2023-02-18T13:18:24.872Z,43.02
2023-02-18T13:19:24.873Z,46.11
2023-02-18T13:20:24.925Z,47.63
2023-02-18T13:21:24.940Z,49.03
2023-02-18T13:22:24.964Z,47.81
2023-02-18T13:23:25.055Z,49.87
2023-02-18T13:24:24.986Z,50.78
2023-02-18T13:25:24.976Z,49.17
2023-02-18T13:26:25.035Z,51.66
2023-02-18T13:27:25.045Z,46.39
2023-02-18T13:28:25.037Z,45.31
2023-02-18T13:29:25.091Z,49.75
2023-02-18T13:30:25.158Z,46.62
2023-02-18T13:31:25.209Z,42.83
2023-02-18T13:32:25.131Z,45.57
2023-02-18T13:33:25.171Z,49.24
2023-02-18T13:34:25.206Z,53.04
2023-02-18T13:35:25.202Z,50.33
2023-02-18T13:36:25.232Z,50.96
2023-02-18T13:37:25.236Z,50.04
2023-02-18T13:38:25.269Z,51.89
2023-02-18T13:39:25.302Z,45.82
2023-02-18T13:40:25.368Z,47.78
2023-02-18T13:41:25.362Z,47.56
2023-02-18T13:42:25.370Z,49.57
2023-02-18T13:43:25.395Z,48.75
2023-02-18T13:44:25.386Z,54.85
2023-02-18T13:45:25.430Z,52.93
2023-02-18T13:46:25.537Z,48.56
2023-02-18T13:47:25.519Z,45.28
2023-02-18T13:48:25.522Z,46.86
2023-02-18T13:49:25.542Z,52.37
2023-02-18T13:50:25.585Z,53.03
2023-02-18T13:51:25.599Z,50.49
2023-02-18T13:52:25.621Z,45.99
2023-02-18T13:53:25.671Z,45.97
2023-02-18T13:54:25.636Z,52.06
2023-02-18T13:55:25.667Z,53.45
2023-02-18T13:56:25.667Z,39.99
2023-02-18T13:57:25.696Z,43.51
2023-02-18T13:58:25.717Z,50.05
2023-02-18T13:59:25.780Z,50.24
2023-02-18T14:00:25.805Z,42.01
2023-02-18T14:01:25.814Z,42.81
2023-02-18T14:02:25.993Z,46.22
2023-02-18T14:03:25.858Z,44.79
2023-02-18T14:04:25.857Z,46.40
2023-02-18T14:05:25.917Z,42.32
2023-02-18T14:06:25.953Z,25.00
2023-02-18T14:07:25.950Z,25.00
2023-02-18T14:08:25.975Z,28.06
2023-02-18T14:09:26.049Z,25.69
2023-02-18T14:10:26.019Z,44.31
2023-02-18T14:11:26.051Z,50.91
2023-02-18T14:12:26.108Z,46.23
2023-02-18T14:13:26.089Z,44.67
2023-02-18T14:14:26.160Z,47.50
2023-02-18T14:15:26.150Z,25.25
2023-02-18T14:16:26.220Z,37.94
2023-02-18T14:17:26.227Z,33.43
2023-02-18T14:18:26.249Z,29.10
2023-02-18T14:19:26.265Z,36.42
2023-02-18T14:20:26.301Z,42.71
2023-02-18T14:21:26.328Z,47.46
2023-02-18T14:22:26.370Z,42.36
2023-02-18T14:23:27.041Z,28.98
2023-02-18T14:24:26.393Z,34.49
2023-02-18T14:25:26.419Z,44.46
2023-02-18T14:26:26.452Z,37.23
2023-02-18T14:27:26.482Z,33.72
2023-02-18T14:28:26.504Z,31.35
2023-02-18T14:29:26.546Z,27.80
2023-02-18T14:30:26.663Z,34.15
2023-02-18T14:31:30.668Z,35.38
2023-02-18T14:32:26.686Z,35.62
2023-02-18T14:33:26.578Z,35.82
2023-02-18T14:34:26.588Z,37.95
2023-02-18T14:35:26.588Z,30.90
2023-02-18T14:36:26.620Z,33.60
2023-02-18T14:37:26.638Z,30.27
2023-02-18T14:38:26.618Z,26.81
2023-02-18T14:39:26.649Z,25.18
2023-02-18T14:40:26.705Z,25.00
2023-02-18T14:41:26.701Z,25.00
2023-02-18T14:42:26.679Z,32.06
2023-02-18T14:43:26.684Z,30.61
2023-02-18T14:44:26.682Z,26.54
2023-02-18T14:45:27.603Z,27.26
2023-02-18T14:46:26.751Z,25.83
2023-02-18T14:47:26.751Z,30.95
2023-02-18T14:48:26.748Z,35.90
2023-02-18T14:49:26.765Z,34.98
2023-02-18T14:50:26.779Z,27.32
2023-02-18T14:51:26.768Z,25.00
2023-02-18T14:52:26.791Z,25.94
2023-02-18T14:53:26.827Z,23.48
2023-02-18T14:54:26.848Z,29.60
2023-02-18T14:55:26.830Z,28.65
2023-02-18T14:56:26.843Z,27.87
2023-02-18T14:57:26.867Z,37.49
2023-02-18T14:58:26.895Z,34.92
2023-02-18T14:59:26.905Z,0.00
2023-02-18T15:00:26.917Z,2.60
2023-02-18T15:01:26.986Z,22.35
2023-02-18T15:02:26.921Z,40.55
2023-02-18T15:03:26.972Z,32.89
2023-02-18T15:04:26.979Z,43.08
2023-02-18T15:05:26.994Z,59.61
2023-02-18T15:06:27.016Z,70.25
2023-02-18T15:07:26.986Z,33.97
2023-02-18T15:08:27.037Z,33.56
2023-02-18T15:09:27.131Z,48.56
2023-02-18T15:10:27.041Z,55.02
2023-02-18T15:11:27.072Z,61.97
2023-02-18T15:12:27.092Z,70.72
2023-02-18T15:13:27.123Z,48.67
2023-02-18T15:14:27.144Z,62.32
2023-02-18T15:15:27.113Z,61.19
2023-02-18T15:16:27.308Z,65.94
2023-02-18T15:17:27.137Z,67.99
2023-02-18T15:18:27.166Z,63.12
2023-02-18T15:19:27.140Z,79.92
2023-02-18T15:20:27.159Z,68.67
2023-02-18T15:21:27.188Z,51.85
2023-02-18T15:22:27.245Z,44.02
2023-02-18T15:23:28.101Z,48.36
2023-02-18T15:24:27.322Z,57.31
2023-02-18T15:25:27.348Z,59.28
2023-02-18T15:26:27.355Z,42.56
2023-02-18T15:27:27.421Z,25.00
2023-02-18T15:28:27.444Z,38.66
2023-02-18T15:29:27.489Z,24.30
2023-02-18T15:30:27.592Z,44.68
2023-02-18T15:31:27.642Z,22.33
2023-02-18T15:32:27.719Z,43.84
2023-02-18T15:33:27.643Z,44.61
2023-02-18T15:34:27.691Z,63.55
2023-02-18T15:35:27.735Z,75.58
2023-02-18T15:36:27.792Z,71.73
2023-02-18T15:37:27.838Z,37.42
2023-02-18T15:38:27.857Z,28.83
2023-02-18T15:39:27.945Z,25.00
2023-02-18T15:40:27.963Z,32.25
2023-02-18T15:41:28.036Z,47.97
2023-02-18T15:42:28.051Z,53.92
2023-02-18T15:43:28.095Z,36.69
2023-02-18T15:44:28.114Z,49.05
2023-02-18T15:45:28.164Z,63.29
2023-02-18T15:46:28.254Z,36.94
2023-02-18T15:47:28.253Z,6.93
2023-02-18T15:48:28.294Z,33.00
2023-02-18T15:49:28.326Z,27.12
2023-02-18T15:50:28.351Z,58.26
2023-02-18T15:51:28.400Z,54.74
2023-02-18T15:52:28.460Z,46.19
2023-02-18T15:53:28.468Z,52.29
2023-02-18T15:54:28.551Z,46.66
2023-02-18T15:55:28.601Z,47.08
2023-02-18T15:56:28.725Z,63.21
2023-02-18T15:57:28.669Z,81.77
2023-02-18T15:58:28.696Z,86.53
2023-02-18T15:59:28.725Z,75.78
2023-02-18T16:00:28.815Z,66.52
2023-02-18T16:01:28.836Z,72.87
2023-02-18T16:02:28.830Z,71.18
2023-02-18T16:03:28.908Z,89.51
2023-02-18T16:04:28.926Z,84.04
2023-02-18T16:05:28.952Z,80.49
2023-02-18T16:06:28.997Z,60.39
2023-02-18T16:07:29.046Z,84.88
2023-02-18T16:08:29.086Z,98.20
2023-02-18T16:09:29.089Z,108.70
2023-02-18T16:10:29.149Z,122.29
2023-02-18T16:11:29.209Z,134.87
2023-02-18T16:12:29.240Z,138.78
2023-02-18T16:13:29.280Z,132.31
2023-02-18T16:14:29.275Z,99.01
2023-02-18T16:15:29.339Z,67.11
2023-02-18T16:16:29.502Z,60.99
2023-02-18T16:17:29.432Z,90.09
2023-02-18T16:18:29.515Z,89.38
2023-02-18T16:19:29.516Z,87.40
2023-02-18T16:20:29.562Z,108.30
2023-02-18T16:21:29.638Z,119.05
2023-02-18T16:22:29.710Z,114.49
2023-02-18T16:23:29.674Z,108.46
2023-02-18T16:24:29.753Z,110.16
2023-02-18T16:25:29.766Z,127.23
2023-02-18T16:26:29.819Z,137.24
2023-02-18T16:27:29.856Z,144.51
2023-02-18T16:28:29.907Z,140.87
2023-02-18T16:29:29.910Z,112.59
2023-02-18T16:30:30.040Z,108.23
2023-02-18T16:31:30.078Z,106.59
2023-02-18T16:32:30.061Z,90.63
2023-02-18T16:33:30.086Z,98.59
2023-02-18T16:34:30.227Z,132.37
2023-02-18T16:35:32.788Z,135.24
2023-02-18T16:36:30.221Z,135.60
2023-02-18T16:37:30.211Z,135.95
2023-02-18T16:38:30.229Z,139.18
2023-02-18T16:39:30.229Z,148.91
2023-02-18T16:40:30.258Z,159.21
2023-02-18T16:41:30.294Z,149.81
2023-02-18T16:42:30.293Z,157.71
2023-02-18T16:43:30.255Z,175.41
2023-02-18T16:44:30.282Z,181.16
2023-02-18T16:45:30.330Z,176.44
2023-02-18T16:46:30.365Z,127.09
2023-02-18T16:47:30.316Z,149.02
2023-02-18T16:48:30.334Z,164.91
2023-02-18T16:49:30.356Z,173.95
2023-02-18T16:50:30.337Z,174.25
2023-02-18T16:51:30.367Z,170.84
2023-02-18T16:52:30.358Z,156.03
2023-02-18T16:53:30.364Z,160.88
2023-02-18T16:55:30.378Z,178.41
2023-02-18T16:56:30.470Z,180.88
2023-02-18T16:57:30.441Z,180.47
2023-02-18T16:58:30.388Z,179.17
2023-02-18T16:59:30.406Z,196.33
2023-02-18T17:00:30.459Z,201.78
2023-02-18T17:01:30.504Z,208.31
2023-02-18T17:02:30.522Z,192.15
2023-02-18T17:03:30.571Z,195.12
2023-02-18T17:04:30.680Z,193.70
2023-02-18T17:05:30.691Z,203.70
2023-02-18T17:24:31.480Z,241.63
2023-02-18T17:25:31.550Z,245.25
2023-02-18T17:26:31.573Z,249.78
2023-02-18T17:27:31.632Z,247.81
2023-02-18T17:28:31.663Z,244.38
2023-02-18T17:29:31.721Z,246.12
2023-02-18T17:30:31.831Z,248.97
2023-02-18T17:31:31.959Z,247.61
2023-02-18T17:32:31.870Z,249.94
2023-02-18T17:35:31.993Z,245.13
2023-02-18T17:36:32.040Z,238.94
2023-02-18T17:37:32.085Z,241.08
2023-02-18T17:38:32.101Z,238.35
2023-02-18T17:39:32.204Z,244.47
2023-02-18T17:40:32.176Z,243.14
2023-02-18T17:41:32.259Z,244.87
2023-02-18T17:42:32.340Z,248.99
2023-02-18T17:43:32.392Z,246.52
2023-02-18T17:44:32.410Z,249.59